createdAt,value
2022-08-17T00:01:51.935Z,94.74
2022-08-17T00:04:21.391Z,97.19
2022-08-17T00:06:53.310Z,97.71
2022-08-17T00:09:21.731Z,95.47
2022-08-17T00:12:41.774Z,93.41
2022-08-17T00:14:38.878Z,93.80
2022-08-17T00:17:07.066Z,94.77
2022-08-17T00:19:35.636Z,94.00
2022-08-17T00:22:35.328Z,92.62
2022-08-17T00:24:55.178Z,93.41
2022-08-17T00:27:23.424Z,92.96
2022-08-17T00:29:52.435Z,93.66
2022-08-17T00:33:11.876Z,95.47
2022-08-17T00:35:11.570Z,93.74
2022-08-17T00:37:41.668Z,95.64
2022-08-17T00:40:13.812Z,99.24
2022-08-17T00:42:43.336Z,99.24
2022-08-17T00:45:14.070Z,96.91
2022-08-17T00:47:44.042Z,96.48
2022-08-17T00:50:17.172Z,97.16
2022-08-17T00:52:49.403Z,97.39
2022-08-17T00:55:18.514Z,97.00
2022-08-17T00:57:55.078Z,96.81
2022-08-17T01:00:28.681Z,96.87
2022-08-17T01:03:00.160Z,97.05
2022-08-17T01:05:32.073Z,96.35
2022-08-17T01:08:03.553Z,96.42
2022-08-17T01:10:59.866Z,98.82
2022-08-17T01:13:39.627Z,100.00
2022-08-17T01:16:15.942Z,100.00
2022-08-17T01:18:45.514Z,100.00
2022-08-17T01:21:21.323Z,100.00
2022-08-17T01:23:50.993Z,100.00
2022-08-17T01:26:19.392Z,100.00
2022-08-17T01:28:53.888Z,100.00
2022-08-17T01:31:24.557Z,100.00
2022-08-17T01:33:52.892Z,100.00
2022-08-17T01:36:21.090Z,100.00
2022-08-17T01:38:51.174Z,100.00
2022-08-17T01:41:22.938Z,100.00
2022-08-17T01:43:55.342Z,100.00
2022-08-17T01:46:26.973Z,100.00
2022-08-17T01:48:55.618Z,100.00
2022-08-17T01:51:24.103Z,100.00
2022-08-17T01:53:58.209Z,100.00
2022-08-17T01:56:27.891Z,100.00
2022-08-17T01:58:55.979Z,100.00
2022-08-17T02:01:26.563Z,100.00
2022-08-17T02:04:01.076Z,100.00
2022-08-17T02:06:52.878Z,100.00
2022-08-17T02:09:23.227Z,100.00
2022-08-17T02:11:54.321Z,100.00
2022-08-17T02:14:23.583Z,100.00
2022-08-17T02:16:52.133Z,100.00
2022-08-17T02:19:20.779Z,100.00
2022-08-17T02:21:51.305Z,100.00
2022-08-17T02:25:00.251Z,100.00
2022-08-17T02:27:12.484Z,100.00
2022-08-17T02:29:41.312Z,100.00
2022-08-17T02:32:20.781Z,100.00
2022-08-17T02:34:58.311Z,100.00
2022-08-17T02:37:26.623Z,100.00
2022-08-17T02:39:58.548Z,100.00
2022-08-17T02:42:29.171Z,100.00
2022-08-17T02:44:57.296Z,100.00
2022-08-17T02:47:25.637Z,100.00
2022-08-17T02:49:56.926Z,100.00
2022-08-17T02:52:42.978Z,100.00
2022-08-17T02:55:16.661Z,100.00
2022-08-17T02:57:45.374Z,100.00
2022-08-17T03:00:18.209Z,100.00
2022-08-17T03:02:46.836Z,100.00
2022-08-17T03:05:17.388Z,100.00
2022-08-17T03:07:46.247Z,100.00
2022-08-17T03:10:17.281Z,100.00
2022-08-17T03:12:46.612Z,100.00
2022-08-17T03:15:17.519Z,100.00
2022-08-17T03:17:46.586Z,100.00
2022-08-17T03:20:17.233Z,100.00
2022-08-17T03:22:48.093Z,100.00
2022-08-17T03:25:26.288Z,100.00
2022-08-17T03:27:55.355Z,100.00
2022-08-17T03:30:24.794Z,100.00
2022-08-17T03:32:55.837Z,100.00
2022-08-17T03:35:26.508Z,100.00
2022-08-17T03:38:00.725Z,100.00
2022-08-17T03:40:55.200Z,100.00
2022-08-17T03:43:21.301Z,100.00
2022-08-17T03:46:10.917Z,100.00
2022-08-17T03:49:13.263Z,100.00
2022-08-17T03:51:58.948Z,100.00
2022-08-17T03:54:44.900Z,100.00
2022-08-17T03:57:15.192Z,100.00
2022-08-17T03:59:44.968Z,100.00
2022-08-17T04:02:18.674Z,100.00
2022-08-17T04:04:46.940Z,100.00
2022-08-17T04:07:16.138Z,100.00
2022-08-17T04:09:45.088Z,100.00
2022-08-17T04:12:16.309Z,100.00
2022-08-17T04:14:53.223Z,100.00
2022-08-17T04:17:24.750Z,100.00
2022-08-17T04:19:55.089Z,100.00
2022-08-17T04:22:30.534Z,100.00
2022-08-17T04:25:14.913Z,100.00
2022-08-17T04:27:44.528Z,100.00
2022-08-17T04:30:13.599Z,100.00
2022-08-17T04:33:04.698Z,100.00
2022-08-17T04:35:37.553Z,100.00
2022-08-17T04:38:06.268Z,100.00
2022-08-17T04:40:51.806Z,100.00
2022-08-17T04:43:23.764Z,100.00
2022-08-17T04:45:56.179Z,100.00
2022-08-17T04:48:29.945Z,100.00
2022-08-17T04:51:06.469Z,100.00
2022-08-17T04:53:34.357Z,100.00
2022-08-17T04:56:02.579Z,100.00
2022-08-17T04:58:32.121Z,100.00
2022-08-17T05:01:00.085Z,100.00
2022-08-17T05:03:28.175Z,100.00
2022-08-17T05:05:56.026Z,100.00
2022-08-17T05:08:23.918Z,100.00
2022-08-17T05:10:52.093Z,100.00
2022-08-17T05:13:21.353Z,99.24
2022-08-17T05:15:54.914Z,96.58
2022-08-17T05:18:24.553Z,91.72
2022-08-17T05:20:52.975Z,92.31
2022-08-17T05:23:22.024Z,89.92
2022-08-17T05:25:50.715Z,87.83
2022-08-17T05:28:22.917Z,86.55
2022-08-17T05:30:56.292Z,81.42
2022-08-17T05:33:25.401Z,79.66
2022-08-17T05:35:54.503Z,76.52
2022-08-17T05:38:24.828Z,75.13
2022-08-17T05:40:53.229Z,71.20
2022-08-17T05:43:22.496Z,66.71
2022-08-17T05:45:55.828Z,65.99
2022-08-17T05:48:35.649Z,65.55
2022-08-17T05:51:12.036Z,61.20
2022-08-17T05:53:46.273Z,59.58
2022-08-17T05:56:29.856Z,57.88
2022-08-17T05:59:03.927Z,54.95
2022-08-17T06:01:36.314Z,51.48
2022-08-17T06:04:16.844Z,52.23
2022-08-17T06:06:50.137Z,50.33
2022-08-17T06:09:33.438Z,50.95
2022-08-17T06:12:07.725Z,47.75
2022-08-17T06:14:48.373Z,47.40
2022-08-17T06:17:19.188Z,46.38
2022-08-17T06:19:52.187Z,47.71
2022-08-17T06:22:21.363Z,48.08
2022-08-17T06:24:51.903Z,47.81
2022-08-17T06:27:24.714Z,44.45
2022-08-17T06:29:56.810Z,45.05
2022-08-17T06:32:26.080Z,44.61
2022-08-17T06:34:55.408Z,45.69
2022-08-17T06:37:33.561Z,44.07
2022-08-17T06:40:13.232Z,43.96
2022-08-17T06:42:58.809Z,43.40
2022-08-17T06:45:36.971Z,42.60
2022-08-17T06:48:08.510Z,41.16
2022-08-17T06:50:39.973Z,40.87
2022-08-17T06:53:14.223Z,40.35
2022-08-17T06:55:46.562Z,41.48
2022-08-17T06:58:16.914Z,41.76
2022-08-17T07:00:46.434Z,42.09
2022-08-17T07:03:19.050Z,43.92
2022-08-17T07:05:51.460Z,45.38
2022-08-17T07:08:29.174Z,45.74
2022-08-17T07:11:02.266Z,46.54
2022-08-17T07:13:38.993Z,46.23
2022-08-17T07:16:15.084Z,46.55
2022-08-17T07:18:43.804Z,48.39
2022-08-17T07:21:25.829Z,47.20
2022-08-17T07:24:02.321Z,47.45
2022-08-17T07:26:30.678Z,47.87
2022-08-17T07:29:00.708Z,46.87
2022-08-17T07:31:30.498Z,47.71
2022-08-17T07:34:06.709Z,47.30
2022-08-17T07:36:36.026Z,47.83
2022-08-17T07:39:04.884Z,48.57
2022-08-17T07:41:58.680Z,48.42
2022-08-17T07:44:23.232Z,49.35
2022-08-17T07:47:12.759Z,48.81
2022-08-17T07:49:44.661Z,48.01
2022-08-17T07:52:51.185Z,47.92
2022-08-17T07:55:27.513Z,47.96
2022-08-17T07:57:57.444Z,47.02
2022-08-17T08:00:31.544Z,47.70
2022-08-17T08:03:18.295Z,46.53
2022-08-17T08:05:51.086Z,46.42
2022-08-17T08:08:25.535Z,47.54
2022-08-17T08:10:59.225Z,46.10
2022-08-17T08:13:29.635Z,46.06
2022-08-17T08:16:13.300Z,45.45
2022-08-17T08:18:55.041Z,45.17
2022-08-17T08:21:30.023Z,45.91
2022-08-17T08:24:02.271Z,45.25
2022-08-17T08:26:34.941Z,45.89
2022-08-17T08:29:06.880Z,46.01
2022-08-17T08:31:42.621Z,45.15
2022-08-17T08:34:46.336Z,44.81
2022-08-17T08:37:14.941Z,45.31
2022-08-17T08:39:51.048Z,45.59
2022-08-17T08:42:24.702Z,44.07
2022-08-17T08:44:59.981Z,44.41
2022-08-17T08:47:40.281Z,43.80
2022-08-17T08:50:37.524Z,43.02
2022-08-17T08:53:19.029Z,42.21
2022-08-17T08:55:52.993Z,42.78
2022-08-17T08:58:31.802Z,42.27
2022-08-17T09:01:16.970Z,40.91
2022-08-17T09:04:10.895Z,41.38
2022-08-17T09:06:49.323Z,42.62
2022-08-17T09:09:21.884Z,41.99
2022-08-17T09:12:02.320Z,41.81
2022-08-17T09:14:44.922Z,41.73
2022-08-17T09:17:16.558Z,41.68
2022-08-17T09:19:52.395Z,41.55
2022-08-17T09:22:26.324Z,40.62
2022-08-17T09:24:58.436Z,40.36
2022-08-17T09:27:29.857Z,41.08
2022-08-17T09:30:00.581Z,40.66
2022-08-17T09:32:32.554Z,40.58
2022-08-17T09:35:02.758Z,40.48
2022-08-17T09:37:33.740Z,40.32
2022-08-17T09:40:14.891Z,40.38
2022-08-17T09:42:48.733Z,39.73
2022-08-17T09:45:29.079Z,39.56
2022-08-17T09:47:59.857Z,39.20
2022-08-17T09:51:03.440Z,39.27
2022-08-17T09:53:19.679Z,39.23
2022-08-17T09:55:53.141Z,38.70
2022-08-17T09:58:29.092Z,38.74
2022-08-17T10:01:03.619Z,39.27
2022-08-17T10:03:41.493Z,39.01
2022-08-17T10:06:13.804Z,39.24
2022-08-17T10:08:45.658Z,38.08
2022-08-17T10:11:33.436Z,37.89
2022-08-17T10:14:36.869Z,37.97
2022-08-17T10:17:00.385Z,37.86
2022-08-17T10:19:35.710Z,37.08
2022-08-17T10:22:34.825Z,36.00
2022-08-17T10:25:24.839Z,35.90
2022-08-17T10:27:59.792Z,35.38
2022-08-17T10:30:31.994Z,34.30
2022-08-17T10:33:01.578Z,33.71
2022-08-17T10:35:42.041Z,32.71
2022-08-17T10:38:19.603Z,33.36
2022-08-17T10:40:55.336Z,32.55
2022-08-17T10:43:32.898Z,32.96
2022-08-17T10:46:10.432Z,32.22
2022-08-17T10:49:11.266Z,32.03
2022-08-17T10:51:40.961Z,31.34
2022-08-17T10:54:28.977Z,31.16
2022-08-17T10:56:58.818Z,30.55
2022-08-17T10:59:47.124Z,31.74
2022-08-17T11:02:18.923Z,31.41
2022-08-17T11:04:52.516Z,31.22
2022-08-17T11:07:27.954Z,30.45
2022-08-17T11:10:10.402Z,30.14
2022-08-17T11:12:45.058Z,29.44
2022-08-17T11:15:22.768Z,30.16
2022-08-17T11:18:07.617Z,30.09
2022-08-17T11:20:54.792Z,30.46
2022-08-17T11:23:35.130Z,30.34
2022-08-17T11:26:08.308Z,30.25
2022-08-17T11:28:48.675Z,29.82
2022-08-17T11:31:38.836Z,29.94
2022-08-17T11:34:14.465Z,29.51
2022-08-17T11:37:02.535Z,29.79
2022-08-17T11:39:38.450Z,29.60
2022-08-17T11:42:11.922Z,29.58
2022-08-17T11:44:51.393Z,28.90
2022-08-17T11:47:39.421Z,27.91
2022-08-17T11:50:40.428Z,28.23
2022-08-17T11:53:29.779Z,28.26
2022-08-17T11:56:09.582Z,28.59
2022-08-17T11:58:38.971Z,27.49
2022-08-17T12:01:10.011Z,27.83
2022-08-17T12:03:55.352Z,28.01
2022-08-17T12:06:32.104Z,28.36
2022-08-17T12:09:03.583Z,28.92
2022-08-17T12:11:55.381Z,29.22
2022-08-17T12:14:40.086Z,29.54
2022-08-17T12:17:22.433Z,29.72
2022-08-17T12:20:14.751Z,28.39
2022-08-17T12:22:47.058Z,27.83
2022-08-17T12:25:19.131Z,28.12
2022-08-17T12:28:04.955Z,27.74
2022-08-17T12:30:33.918Z,28.72
2022-08-17T12:33:03.273Z,29.19
2022-08-17T12:35:38.979Z,29.07
2022-08-17T12:38:26.918Z,28.99
2022-08-17T12:40:59.109Z,29.21
2022-08-17T12:43:30.406Z,28.23
2022-08-17T12:46:01.067Z,28.09
2022-08-17T12:48:58.859Z,27.62
2022-08-17T12:51:28.921Z,27.67
2022-08-17T12:53:57.274Z,27.71
2022-08-17T12:56:25.551Z,27.86
2022-08-17T12:58:55.618Z,26.56
2022-08-17T13:01:25.196Z,27.08
2022-08-17T13:03:57.262Z,27.66
2022-08-17T13:06:30.225Z,27.97
2022-08-17T13:09:08.906Z,28.07
2022-08-17T13:11:36.849Z,28.63
2022-08-17T13:14:10.081Z,28.82
2022-08-17T13:16:38.323Z,28.66
2022-08-17T13:19:08.934Z,28.26
2022-08-17T13:21:38.020Z,27.81
2022-08-17T13:24:08.130Z,27.60
2022-08-17T13:26:37.982Z,28.00
2022-08-17T13:29:06.695Z,28.03
2022-08-17T13:31:51.196Z,28.22
2022-08-17T13:34:34.270Z,28.32
2022-08-17T13:37:29.598Z,28.06
2022-08-17T13:39:59.518Z,28.06
2022-08-17T13:42:32.338Z,27.96
2022-08-17T13:45:00.960Z,27.66
2022-08-17T13:47:29.071Z,27.39
2022-08-17T13:50:00.294Z,28.08
2022-08-17T13:52:34.205Z,28.05
2022-08-17T13:55:04.044Z,27.89
2022-08-17T13:57:32.143Z,28.05
2022-08-17T14:00:10.960Z,27.64
2022-08-17T14:02:38.932Z,27.65
2022-08-17T14:05:08.587Z,27.84
2022-08-17T14:07:39.913Z,27.19
2022-08-17T14:10:11.520Z,27.61
2022-08-17T14:12:41.146Z,27.65
2022-08-17T14:15:09.859Z,27.64
2022-08-17T14:17:39.275Z,27.66
2022-08-17T14:20:11.116Z,27.68
2022-08-17T14:22:40.041Z,27.41
2022-08-17T14:25:10.349Z,27.75
2022-08-17T14:27:52.336Z,27.83
2022-08-17T14:30:22.462Z,27.57
2022-08-17T14:32:52.017Z,27.73
2022-08-17T14:35:23.254Z,28.08
2022-08-17T14:37:51.533Z,27.49
2022-08-17T14:40:24.977Z,27.37
2022-08-17T14:42:54.424Z,27.44
2022-08-17T14:45:30.356Z,27.28
2022-08-17T14:48:00.685Z,26.61
2022-08-17T14:50:30.444Z,26.77
2022-08-17T14:53:01.589Z,26.59
2022-08-17T14:55:31.054Z,26.64
2022-08-17T14:57:59.467Z,27.12
2022-08-17T15:00:28.627Z,26.63
2022-08-17T15:02:58.123Z,27.19
2022-08-17T15:05:26.941Z,26.86
2022-08-17T15:08:41.614Z,26.83
2022-08-17T15:11:14.286Z,27.02
2022-08-17T15:13:52.880Z,26.24
2022-08-17T15:16:21.592Z,26.53
2022-08-17T15:18:50.174Z,26.51
2022-08-17T15:21:18.295Z,26.97
2022-08-17T15:23:46.671Z,26.57
2022-08-17T15:26:16.863Z,26.61
2022-08-17T15:28:44.865Z,26.76
2022-08-17T15:31:31.869Z,26.54
2022-08-17T15:34:00.149Z,27.23
2022-08-17T15:36:28.172Z,27.19
2022-08-17T15:38:56.147Z,26.82
2022-08-17T15:41:27.999Z,26.52
2022-08-17T15:43:56.416Z,26.41
2022-08-17T15:46:25.635Z,26.74
2022-08-17T15:48:54.900Z,26.70
2022-08-17T15:51:24.522Z,26.92
2022-08-17T15:53:53.645Z,26.49
2022-08-17T15:56:21.718Z,26.90
2022-08-17T15:58:51.017Z,26.35
2022-08-17T16:03:01.286Z,26.62
2022-08-17T16:04:29.969Z,26.42
2022-08-17T16:06:55.953Z,26.43
2022-08-17T16:09:23.858Z,26.46
2022-08-17T16:11:53.741Z,26.60
2022-08-17T16:14:24.838Z,26.48
2022-08-17T16:17:00.623Z,27.13
2022-08-17T16:19:29.964Z,27.40
2022-08-17T16:21:57.828Z,27.41
2022-08-17T16:24:26.105Z,26.94
2022-08-17T16:26:55.379Z,27.05
2022-08-17T16:29:25.190Z,27.25
2022-08-17T16:31:53.399Z,27.01
2022-08-17T16:34:21.490Z,27.03
2022-08-17T16:36:54.812Z,27.45
2022-08-17T16:39:25.153Z,27.39
2022-08-17T16:41:53.003Z,26.92
2022-08-17T16:44:21.867Z,27.20
2022-08-17T16:46:51.255Z,27.16
2022-08-17T16:49:35.466Z,26.80
2022-08-17T16:52:09.818Z,27.23
2022-08-17T16:54:39.312Z,26.99
2022-08-17T16:57:07.224Z,26.98
2022-08-17T16:59:40.935Z,27.10
2022-08-17T17:02:14.055Z,27.50
2022-08-17T17:04:45.834Z,27.44
2022-08-17T17:07:20.888Z,27.29
2022-08-17T17:09:52.656Z,27.58
2022-08-17T17:12:59.534Z,27.17
2022-08-17T17:15:09.632Z,27.53
2022-08-17T17:17:40.013Z,27.47
2022-08-17T17:20:11.945Z,27.74
2022-08-17T17:22:45.393Z,27.86
2022-08-17T17:25:16.157Z,28.17
2022-08-17T17:27:47.908Z,28.45
2022-08-17T17:30:20.792Z,28.81
2022-08-17T17:32:51.757Z,28.31
2022-08-17T17:35:24.097Z,28.94
2022-08-17T17:37:53.428Z,28.79
2022-08-17T17:40:23.776Z,29.38
2022-08-17T17:42:53.683Z,29.77
2022-08-17T17:45:23.231Z,29.98
2022-08-17T17:47:53.052Z,29.64
2022-08-17T17:50:27.752Z,29.92
2022-08-17T17:53:02.112Z,30.64
2022-08-17T17:55:40.784Z,30.10
2022-08-17T17:58:21.492Z,30.19
2022-08-17T18:00:52.127Z,30.14
2022-08-17T18:03:26.853Z,30.56
2022-08-17T18:06:01.266Z,30.73
2022-08-17T18:08:43.003Z,30.95
2022-08-17T18:11:24.488Z,31.10
2022-08-17T18:14:00.310Z,31.05
2022-08-17T18:16:31.996Z,31.29
2022-08-17T18:19:01.772Z,31.89
2022-08-17T18:21:33.427Z,30.79
2022-08-17T18:24:02.487Z,31.38
2022-08-17T18:26:42.058Z,30.99
2022-08-17T18:29:31.388Z,31.62
2022-08-17T18:32:29.318Z,32.37
2022-08-17T18:35:00.192Z,32.27
2022-08-17T18:37:38.899Z,32.46
2022-08-17T18:40:31.504Z,33.00
2022-08-17T18:43:02.863Z,33.07
2022-08-17T18:45:35.474Z,33.04
2022-08-17T18:48:03.610Z,33.01
2022-08-17T18:50:39.501Z,33.21
2022-08-17T18:53:20.801Z,33.55
2022-08-17T18:56:16.212Z,33.97
2022-08-17T18:58:51.169Z,34.17
2022-08-17T19:01:20.243Z,34.03
2022-08-17T19:03:48.304Z,34.16
2022-08-17T19:06:19.576Z,34.15
2022-08-17T19:08:47.492Z,34.02
2022-08-17T19:11:20.239Z,34.00
2022-08-17T19:13:53.297Z,37.48
2022-08-17T19:16:25.947Z,34.97
2022-08-17T19:18:58.181Z,41.68
2022-08-17T19:21:30.641Z,45.29
2022-08-17T19:24:01.701Z,40.48
2022-08-17T19:26:54.479Z,38.34
2022-08-17T19:29:23.649Z,39.22
2022-08-17T19:31:52.824Z,40.79
2022-08-17T19:34:30.089Z,40.18
2022-08-17T19:37:07.511Z,41.19
2022-08-17T19:39:41.278Z,40.41
2022-08-17T19:42:13.959Z,40.75
2022-08-17T19:44:51.529Z,42.18
2022-08-17T19:47:50.994Z,42.00
2022-08-17T19:50:18.878Z,40.11
2022-08-17T19:52:55.211Z,40.63
2022-08-17T19:55:31.619Z,42.32
2022-08-17T19:58:04.450Z,40.84
2022-08-17T20:00:36.063Z,40.12
2022-08-17T20:03:07.430Z,41.62
2022-08-17T20:05:54.464Z,42.50
2022-08-17T20:08:27.315Z,42.66
2022-08-17T20:10:58.042Z,42.07
2022-08-17T20:13:36.196Z,45.21
2022-08-17T20:16:05.396Z,43.36
2022-08-17T20:18:36.665Z,42.91
2022-08-17T20:21:20.453Z,41.96
2022-08-17T20:23:53.271Z,41.43
2022-08-17T20:26:23.371Z,41.58
2022-08-17T20:29:09.127Z,41.74
2022-08-17T20:31:41.983Z,41.74
2022-08-17T20:34:30.819Z,42.02
2022-08-17T20:37:07.308Z,43.69
2022-08-17T20:39:39.904Z,42.76
2022-08-17T20:42:10.284Z,40.65
2022-08-17T20:44:40.032Z,40.45
2022-08-17T20:47:11.106Z,40.29
2022-08-17T20:49:49.170Z,40.22
2022-08-17T20:52:37.120Z,40.38
2022-08-17T20:55:06.729Z,41.56
2022-08-17T20:57:47.388Z,41.70
2022-08-17T21:00:40.564Z,41.98
2022-08-17T21:03:50.402Z,43.10
2022-08-17T21:06:18.233Z,43.08
2022-08-17T21:08:53.359Z,43.29
2022-08-17T21:11:56.696Z,43.43
2022-08-17T21:14:49.035Z,43.42
2022-08-17T21:17:31.080Z,43.29
2022-08-17T21:20:17.386Z,44.07
2022-08-17T21:22:55.784Z,44.67
2022-08-17T21:25:32.553Z,45.46
2022-08-17T21:28:10.063Z,46.10
2022-08-17T21:30:47.573Z,47.39
2022-08-17T21:33:23.193Z,48.86
2022-08-17T21:35:52.599Z,50.34
2022-08-17T21:38:22.308Z,51.75
2022-08-17T21:40:51.062Z,52.44
2022-08-17T21:43:24.070Z,54.06
2022-08-17T21:45:57.689Z,52.55
2022-08-17T21:48:27.258Z,53.17
2022-08-17T21:51:00.803Z,54.23
2022-08-17T21:53:33.402Z,53.32
2022-08-17T21:56:01.827Z,53.76
2022-08-17T21:58:32.387Z,53.88
2022-08-17T22:01:10.142Z,52.90
2022-08-17T22:03:38.567Z,53.56
2022-08-17T22:06:19.849Z,54.54
2022-08-17T22:08:58.284Z,55.00
2022-08-17T22:11:26.139Z,55.15
2022-08-17T22:14:05.192Z,55.44
2022-08-17T22:16:33.574Z,55.44
2022-08-17T22:19:01.587Z,54.66
2022-08-17T22:21:29.545Z,54.27
2022-08-17T22:24:03.891Z,55.09
2022-08-17T22:26:47.371Z,55.09
2022-08-17T22:29:30.450Z,54.15
2022-08-17T22:31:59.700Z,55.14
2022-08-17T22:34:27.556Z,53.80
2022-08-17T22:37:10.349Z,54.20
2022-08-17T22:39:41.945Z,54.68
2022-08-17T22:42:15.376Z,55.28
2022-08-17T22:44:50.354Z,55.83
2022-08-17T22:47:29.661Z,55.27
2022-08-17T22:49:59.769Z,56.37
2022-08-17T22:52:32.872Z,55.64
2022-08-17T22:55:20.076Z,55.21
2022-08-17T22:58:07.976Z,55.93
2022-08-17T23:00:38.693Z,56.03
2022-08-17T23:03:10.658Z,56.04
2022-08-17T23:05:38.900Z,56.09
2022-08-17T23:08:06.785Z,56.55
2022-08-17T23:10:36.020Z,57.45
2022-08-17T23:13:04.343Z,57.07
2022-08-17T23:15:33.943Z,59.42
2022-08-17T23:18:05.215Z,59.34
2022-08-17T23:20:37.387Z,59.34
2022-08-17T23:23:06.669Z,59.41
2022-08-17T23:25:35.621Z,61.33
2022-08-17T23:28:05.156Z,61.70
2022-08-17T23:30:34.764Z,62.07
2022-08-17T23:33:05.483Z,61.46
2022-08-17T23:35:40.388Z,62.02
2022-08-17T23:38:09.564Z,61.95
2022-08-17T23:40:37.781Z,61.67
2022-08-17T23:43:23.405Z,62.08
2022-08-17T23:45:53.043Z,62.76
2022-08-17T23:48:30.334Z,62.99
2022-08-17T23:51:09.740Z,63.50
2022-08-17T23:53:38.232Z,63.40
2022-08-17T23:56:09.697Z,62.01
2022-08-17T23:58:39.447Z,62.71
